createdAt,value
2018-10-03T00:00:41.616Z,80.00
2018-10-03T00:03:10.425Z,80.40
2018-10-03T00:05:39.708Z,79.90
2018-10-03T00:08:09.024Z,80.50
2018-10-03T00:10:39.418Z,81.50
2018-10-03T00:13:10.560Z,81.00
2018-10-03T00:15:39.479Z,80.50
2018-10-03T00:18:12.513Z,80.80
2018-10-03T00:20:41.432Z,81.00
2018-10-03T00:23:10.633Z,80.80
2018-10-03T00:25:40.106Z,80.30
2018-10-03T00:28:09.645Z,80.20
2018-10-03T00:30:38.701Z,80.50
2018-10-03T00:33:08.381Z,80.10
2018-10-03T00:35:38.347Z,80.30
2018-10-03T00:38:08.472Z,80.60
2018-10-03T00:40:40.437Z,80.50
2018-10-03T00:43:09.673Z,80.40
2018-10-03T00:45:39.080Z,79.90
2018-10-03T00:48:08.176Z,80.10
2018-10-03T00:50:37.626Z,80.40
2018-10-03T00:53:07.633Z,80.50
2018-10-03T00:55:41.370Z,80.70
2018-10-03T00:58:10.518Z,80.50
2018-10-03T01:00:39.300Z,80.10
2018-10-03T01:03:08.338Z,80.40
2018-10-03T01:05:37.547Z,80.30
2018-10-03T01:08:07.460Z,79.90
2018-10-03T01:10:36.745Z,80.20
2018-10-03T01:13:09.397Z,79.80
2018-10-03T01:15:40.814Z,80.70
2018-10-03T01:18:10.253Z,80.50
2018-10-03T01:20:39.460Z,81.10
2018-10-03T01:23:12.422Z,80.50
2018-10-03T01:25:41.604Z,81.30
2018-10-03T01:28:10.934Z,81.50
2018-10-03T01:30:40.137Z,81.70
2018-10-03T01:33:09.096Z,81.50
2018-10-03T01:35:39.271Z,82.10
2018-10-03T01:38:12.337Z,82.40
2018-10-03T01:40:41.600Z,82.80
2018-10-03T01:43:13.485Z,83.20
2018-10-03T01:45:46.191Z,83.30
2018-10-03T01:48:15.412Z,83.20
2018-10-03T01:50:46.532Z,83.00
2018-10-03T01:53:15.521Z,81.90
2018-10-03T01:55:44.465Z,82.40
2018-10-03T01:58:13.893Z,82.20
2018-10-03T02:00:43.151Z,83.20
2018-10-03T02:03:13.378Z,83.10
2018-10-03T02:05:53.340Z,83.00
2018-10-03T02:08:22.995Z,83.20
2018-10-03T02:10:53.161Z,83.00
2018-10-03T02:13:25.880Z,83.10
2018-10-03T02:15:55.163Z,82.10
2018-10-03T02:18:24.093Z,83.90
2018-10-03T02:20:54.202Z,83.50
2018-10-03T02:23:32.607Z,84.90
2018-10-03T02:26:04.471Z,84.60
2018-10-03T02:28:33.494Z,84.80
2018-10-03T02:31:05.890Z,84.40
2018-10-03T02:33:38.423Z,85.00
2018-10-03T02:36:07.860Z,84.40
2018-10-03T02:38:36.705Z,83.30
2018-10-03T02:41:07.490Z,84.40
2018-10-03T02:43:37.937Z,84.10
2018-10-03T02:46:07.508Z,84.10
2018-10-03T02:48:36.684Z,84.40
2018-10-03T02:51:05.564Z,85.00
2018-10-03T02:53:34.417Z,86.00
2018-10-03T02:56:06.606Z,86.30
2018-10-03T02:58:41.059Z,86.00
2018-10-03T03:01:10.523Z,85.00
2018-10-03T03:03:42.427Z,84.80
2018-10-03T03:06:11.646Z,84.80
2018-10-03T03:08:41.989Z,83.50
2018-10-03T03:11:11.149Z,83.30
2018-10-03T03:13:40.398Z,84.00
2018-10-03T03:16:09.145Z,85.00
2018-10-03T03:18:39.444Z,84.20
2018-10-03T03:21:09.057Z,84.10
2018-10-03T03:23:38.159Z,82.50
2018-10-03T03:26:09.673Z,83.50
2018-10-03T03:28:42.013Z,83.60
2018-10-03T03:31:11.246Z,84.30
2018-10-03T03:33:40.736Z,84.20
2018-10-03T03:36:10.901Z,85.00
2018-10-03T03:38:40.127Z,85.00
2018-10-03T03:41:09.166Z,84.70
2018-10-03T03:43:39.972Z,85.20
2018-10-03T03:46:08.974Z,85.70
2018-10-03T03:48:45.633Z,85.10
2018-10-03T03:51:14.392Z,84.50
2018-10-03T03:53:43.560Z,83.60
2018-10-03T03:56:12.592Z,83.90
2018-10-03T03:58:41.368Z,86.60
2018-10-03T04:01:17.657Z,85.80
2018-10-03T04:03:47.984Z,85.60
2018-10-03T04:06:17.042Z,84.30
2018-10-03T04:08:45.889Z,84.10
2018-10-03T04:11:15.336Z,86.60
2018-10-03T04:13:45.755Z,86.70
2018-10-03T04:16:15.692Z,87.90
2018-10-03T04:18:48.442Z,87.90
2018-10-03T04:21:17.894Z,88.30
2018-10-03T04:23:47.815Z,87.80
2018-10-03T04:26:17.039Z,88.10
2018-10-03T04:28:45.898Z,87.90
2018-10-03T04:31:15.074Z,88.30
2018-10-03T04:33:46.130Z,88.20
2018-10-03T04:36:17.179Z,88.00
2018-10-03T04:38:49.133Z,88.30
2018-10-03T04:41:18.292Z,87.90
2018-10-03T04:43:55.328Z,87.80
2018-10-03T04:46:24.901Z,87.00
2018-10-03T04:48:54.033Z,86.60
2018-10-03T04:51:24.288Z,86.60
2018-10-03T04:53:55.125Z,86.40
2018-10-03T04:56:26.331Z,86.70
2018-10-03T04:59:01.154Z,86.80
2018-10-03T05:01:30.638Z,86.70
2018-10-03T05:04:02.630Z,87.00
2018-10-03T05:06:32.007Z,86.60
2018-10-03T05:09:01.036Z,86.80
2018-10-03T05:11:32.706Z,87.50
2018-10-03T05:14:03.830Z,87.70
2018-10-03T05:16:32.940Z,86.40
2018-10-03T05:19:05.326Z,87.20
2018-10-03T05:21:37.734Z,88.00
2018-10-03T05:24:07.009Z,88.70
2018-10-03T05:26:36.269Z,87.90
2018-10-03T05:29:05.452Z,87.70
2018-10-03T05:31:46.155Z,88.20
2018-10-03T05:34:15.831Z,87.90
2018-10-03T05:36:47.642Z,88.10
2018-10-03T05:39:16.792Z,87.90
2018-10-03T05:41:45.665Z,87.90
2018-10-03T05:44:15.088Z,87.50
2018-10-03T05:46:43.884Z,87.90
2018-10-03T05:49:12.904Z,87.00
2018-10-03T05:51:47.188Z,87.10
2018-10-03T05:54:19.726Z,87.50
2018-10-03T05:56:49.229Z,88.20
2018-10-03T05:59:18.873Z,88.30
2018-10-03T06:01:51.142Z,88.40
2018-10-03T06:04:20.225Z,88.20
2018-10-03T06:06:49.304Z,88.20
2018-10-03T06:09:19.021Z,88.20
2018-10-03T06:11:54.851Z,88.20
2018-10-03T06:14:27.408Z,88.30
2018-10-03T06:16:59.047Z,88.60
2018-10-03T06:19:29.880Z,88.40
2018-10-03T06:22:05.153Z,88.40
2018-10-03T06:24:34.735Z,87.70
2018-10-03T06:27:03.964Z,87.40
2018-10-03T06:29:33.207Z,88.20
2018-10-03T06:32:05.109Z,87.70
2018-10-03T06:34:35.535Z,88.70
2018-10-03T06:37:04.321Z,88.80
2018-10-03T06:39:33.583Z,87.90
2018-10-03T06:42:02.808Z,88.60
2018-10-03T06:44:31.544Z,88.60
2018-10-03T06:47:01.412Z,88.50
2018-10-03T06:49:32.213Z,87.40
2018-10-03T06:52:01.916Z,87.40
2018-10-03T06:54:30.681Z,86.80
2018-10-03T06:56:59.949Z,86.60
2018-10-03T06:59:29.344Z,86.30
2018-10-03T07:02:00.543Z,85.80
2018-10-03T07:04:32.992Z,85.90
2018-10-03T07:07:01.842Z,86.00
2018-10-03T07:09:33.809Z,85.90
2018-10-03T07:12:06.945Z,85.60
2018-10-03T07:14:39.664Z,85.70
2018-10-03T07:17:09.328Z,85.30
2018-10-03T07:19:38.281Z,85.20
2018-10-03T07:22:13.135Z,85.10
2018-10-03T07:24:41.929Z,84.60
2018-10-03T07:27:11.965Z,84.70
2018-10-03T07:29:46.964Z,84.70
2018-10-03T07:32:15.829Z,84.60
2018-10-03T07:34:47.625Z,84.10
2018-10-03T07:37:19.326Z,84.00
2018-10-03T07:39:56.110Z,83.70
2018-10-03T07:42:28.410Z,83.00
2018-10-03T07:45:05.424Z,82.90
2018-10-03T07:47:34.679Z,83.20
2018-10-03T07:50:09.170Z,82.20
2018-10-03T07:52:42.586Z,81.20
2018-10-03T07:55:13.336Z,81.30
2018-10-03T07:57:42.727Z,80.70
2018-10-03T08:00:13.904Z,81.20
2018-10-03T08:02:44.111Z,81.00
2018-10-03T08:05:26.005Z,81.10
2018-10-03T08:07:55.674Z,80.90
2018-10-03T08:10:28.742Z,81.20
2018-10-03T08:13:01.816Z,81.20
2018-10-03T08:15:32.156Z,81.30
2018-10-03T08:18:07.068Z,80.90
2018-10-03T08:20:37.159Z,81.20
2018-10-03T08:23:11.397Z,81.20
2018-10-03T08:25:40.608Z,80.60
2018-10-03T08:28:09.719Z,80.60
2018-10-03T08:30:42.449Z,80.40
2018-10-03T08:33:15.069Z,80.40
2018-10-03T08:35:45.892Z,80.20
2018-10-03T08:38:15.056Z,79.40
2018-10-03T08:40:44.568Z,79.80
2018-10-03T08:43:13.356Z,79.50
2018-10-03T08:45:43.353Z,79.90
2018-10-03T08:48:12.289Z,79.80
2018-10-03T08:50:45.512Z,79.20
2018-10-03T08:53:15.502Z,79.40
2018-10-03T08:55:45.451Z,79.90
2018-10-03T08:58:19.528Z,79.00
2018-10-03T09:00:50.756Z,78.40
2018-10-03T09:03:19.879Z,76.80
2018-10-03T09:05:52.401Z,76.20
2018-10-03T09:08:28.044Z,76.80
2018-10-03T09:11:00.895Z,76.70
2018-10-03T09:13:34.074Z,77.10
2018-10-03T09:16:03.739Z,76.90
2018-10-03T09:18:35.774Z,74.60
2018-10-03T09:21:05.172Z,72.90
2018-10-03T09:23:34.450Z,74.70
2018-10-03T09:26:03.295Z,74.60
2018-10-03T09:28:34.454Z,72.60
2018-10-03T09:31:03.289Z,73.40
2018-10-03T09:33:32.321Z,72.80
2018-10-03T09:36:05.426Z,72.50
2018-10-03T09:38:34.617Z,71.00
2018-10-03T09:41:06.548Z,70.70
2018-10-03T09:43:36.076Z,69.90
2018-10-03T09:46:05.486Z,70.40
2018-10-03T09:48:35.795Z,71.50
2018-10-03T09:51:04.581Z,71.50
2018-10-03T09:53:34.572Z,71.80
2018-10-03T09:56:03.793Z,71.00
2018-10-03T09:58:44.088Z,71.70
2018-10-03T10:01:20.848Z,69.80
2018-10-03T10:03:51.052Z,69.80
2018-10-03T10:06:20.904Z,70.00
2018-10-03T10:08:51.115Z,69.50
2018-10-03T10:11:20.852Z,67.70
2018-10-03T10:13:56.188Z,69.40
2018-10-03T10:16:25.915Z,66.40
2018-10-03T10:18:56.750Z,66.20
2018-10-03T10:21:26.044Z,65.90
2018-10-03T10:23:54.912Z,67.30
2018-10-03T10:26:26.418Z,67.10
2018-10-03T10:28:55.413Z,67.90
2018-10-03T10:31:24.986Z,64.00
2018-10-03T10:33:56.166Z,64.40
2018-10-03T10:36:27.569Z,65.10
2018-10-03T10:38:57.160Z,63.50
2018-10-03T10:41:28.699Z,64.50
2018-10-03T10:43:58.075Z,64.90
2018-10-03T10:46:27.991Z,65.20
2018-10-03T10:48:56.855Z,65.60
2018-10-03T10:51:26.117Z,65.30
2018-10-03T10:53:55.243Z,62.90
2018-10-03T10:56:23.989Z,63.20
2018-10-03T10:58:53.345Z,65.90
2018-10-03T11:01:22.695Z,64.60
2018-10-03T11:03:51.764Z,66.50
2018-10-03T11:06:23.113Z,65.60
2018-10-03T11:08:52.339Z,66.30
2018-10-03T11:11:23.901Z,66.10
2018-10-03T11:13:54.709Z,66.40
2018-10-03T11:16:24.509Z,65.90
2018-10-03T11:18:57.840Z,65.40
2018-10-03T11:21:28.198Z,65.90
2018-10-03T11:23:57.327Z,63.90
2018-10-03T11:26:26.652Z,65.60
2018-10-03T11:28:56.387Z,64.00
2018-10-03T11:31:25.544Z,63.30
2018-10-03T11:33:58.332Z,63.60
2018-10-03T11:36:31.365Z,65.60
2018-10-03T11:39:00.683Z,65.20
2018-10-03T11:41:29.735Z,65.80
2018-10-03T11:44:02.803Z,66.30
2018-10-03T11:46:32.220Z,64.20
2018-10-03T11:49:08.852Z,66.20
2018-10-03T11:51:38.154Z,65.20
2018-10-03T11:54:07.571Z,63.90
2018-10-03T11:56:36.669Z,63.50
2018-10-03T11:59:09.912Z,64.40
2018-10-03T12:01:41.481Z,63.50
2018-10-03T12:04:10.896Z,64.80
2018-10-03T12:06:40.209Z,66.20
2018-10-03T12:09:11.208Z,65.80
2018-10-03T12:11:41.319Z,64.80
2018-10-03T12:14:10.949Z,65.70
2018-10-03T12:16:40.222Z,66.10
2018-10-03T12:19:09.347Z,65.10
2018-10-03T12:21:38.645Z,66.00
2018-10-03T12:24:32.135Z,63.90
2018-10-03T12:27:01.335Z,64.60
2018-10-03T12:29:35.116Z,63.50
2018-10-03T12:32:04.597Z,64.70
2018-10-03T12:34:34.640Z,63.20
2018-10-03T12:37:04.165Z,63.80
2018-10-03T12:39:34.829Z,62.90
2018-10-03T12:42:09.571Z,62.40
2018-10-03T12:44:41.696Z,62.90
2018-10-03T12:47:12.620Z,62.80
2018-10-03T12:49:41.584Z,62.00
2018-10-03T12:52:10.371Z,63.10
2018-10-03T12:54:40.595Z,61.90
2018-10-03T12:57:10.080Z,61.70
2018-10-03T12:59:40.901Z,63.20
2018-10-03T13:02:15.244Z,63.50
2018-10-03T13:04:44.961Z,61.30
2018-10-03T13:07:14.192Z,62.30
2018-10-03T13:09:51.330Z,62.50
2018-10-03T13:12:24.680Z,62.50
2018-10-03T13:14:53.578Z,62.40
2018-10-03T13:17:22.928Z,63.30
2018-10-03T13:19:52.003Z,63.50
2018-10-03T13:22:21.204Z,63.20
2018-10-03T13:24:50.614Z,62.90
2018-10-03T13:27:19.861Z,63.00
2018-10-03T13:29:49.159Z,61.40
2018-10-03T13:32:18.402Z,63.40
2018-10-03T13:34:47.671Z,63.40
2018-10-03T13:37:24.463Z,62.80
2018-10-03T13:39:55.403Z,62.80
2018-10-03T13:42:24.482Z,64.10
2018-10-03T13:44:53.384Z,62.20
2018-10-03T13:47:22.482Z,63.20
2018-10-03T13:49:51.916Z,61.50
2018-10-03T13:52:22.779Z,62.10
2018-10-03T13:54:53.150Z,63.30
2018-10-03T13:57:21.929Z,61.60
2018-10-03T13:59:51.327Z,60.60
2018-10-03T14:02:22.390Z,62.00
2018-10-03T14:04:51.696Z,62.90
2018-10-03T14:07:21.458Z,61.80
2018-10-03T14:09:53.764Z,62.90
2018-10-03T14:12:23.659Z,62.20
2018-10-03T14:14:52.891Z,62.60
2018-10-03T14:17:21.911Z,62.30
2018-10-03T14:19:50.667Z,62.90
2018-10-03T14:22:19.811Z,62.70
2018-10-03T14:24:53.376Z,63.20
2018-10-03T14:27:23.864Z,63.20
2018-10-03T14:29:53.033Z,62.80
2018-10-03T14:32:21.793Z,61.60
2018-10-03T14:34:50.972Z,62.10
2018-10-03T14:37:19.920Z,62.00
2018-10-03T14:39:51.212Z,61.30
2018-10-03T14:42:21.189Z,61.50
2018-10-03T14:44:50.310Z,60.90
2018-10-03T14:47:19.105Z,61.20
2018-10-03T14:49:48.024Z,60.20
2018-10-03T14:52:17.597Z,62.50
2018-10-03T14:54:50.520Z,62.20
2018-10-03T14:57:20.185Z,62.20
2018-10-03T14:59:48.950Z,62.10
2018-10-03T15:02:17.701Z,63.30
2018-10-03T15:04:46.709Z,62.30
2018-10-03T15:07:15.964Z,62.10
2018-10-03T15:09:46.614Z,62.00
2018-10-03T15:12:15.351Z,61.70
2018-10-03T15:14:44.184Z,61.70
2018-10-03T15:17:13.367Z,61.60
2018-10-03T15:19:42.815Z,61.10
2018-10-03T15:22:13.119Z,60.80
2018-10-03T15:24:42.380Z,61.50
2018-10-03T15:27:11.151Z,61.40
2018-10-03T15:29:40.374Z,60.80
2018-10-03T15:32:09.334Z,61.20
2018-10-03T15:34:38.815Z,63.00
2018-10-03T15:37:12.182Z,63.00
2018-10-03T15:39:43.242Z,61.80
2018-10-03T15:42:13.797Z,62.50
2018-10-03T15:44:48.248Z,61.80
2018-10-03T15:47:17.330Z,62.60
2018-10-03T15:49:46.203Z,62.20
2018-10-03T15:52:15.617Z,62.50
2018-10-03T15:54:44.988Z,63.80
2018-10-03T15:57:14.216Z,63.30
2018-10-03T15:59:43.694Z,62.70
2018-10-03T16:02:14.329Z,62.40
2018-10-03T16:04:45.019Z,61.60
2018-10-03T16:07:18.165Z,62.90
2018-10-03T16:09:52.053Z,62.50
2018-10-03T16:12:21.269Z,61.80
2018-10-03T16:14:56.446Z,63.40
2018-10-03T16:17:25.534Z,63.10
2018-10-03T16:19:58.476Z,63.20
2018-10-03T16:22:27.794Z,64.10
2018-10-03T16:24:57.015Z,65.50
2018-10-03T16:27:27.051Z,65.00
2018-10-03T16:29:56.332Z,66.00
2018-10-03T16:32:29.744Z,66.50
2018-10-03T16:34:58.903Z,65.60
2018-10-03T16:37:31.256Z,66.80
2018-10-03T16:40:03.950Z,67.50
2018-10-03T16:42:34.776Z,67.70
2018-10-03T16:45:04.330Z,67.60
2018-10-03T16:47:33.093Z,66.90
2018-10-03T16:50:03.341Z,66.00
2018-10-03T16:52:32.725Z,66.20
2018-10-03T16:55:03.963Z,67.10
2018-10-03T16:57:38.915Z,68.00
2018-10-03T17:00:08.236Z,69.20
2018-10-03T17:02:38.922Z,70.20
2018-10-03T17:05:08.023Z,70.70
2018-10-03T17:07:37.809Z,71.70
2018-10-03T17:10:07.169Z,70.80
2018-10-03T17:12:36.792Z,70.90
2018-10-03T17:15:10.138Z,71.30
2018-10-03T17:17:49.359Z,71.40
2018-10-03T17:20:19.763Z,72.60
2018-10-03T17:22:55.136Z,73.10
2018-10-03T17:25:27.251Z,73.30
2018-10-03T17:28:03.713Z,73.00
2018-10-03T17:30:36.581Z,73.30
2018-10-03T17:33:07.899Z,73.70
2018-10-03T17:35:38.625Z,73.20
2018-10-03T17:38:08.179Z,73.80
2018-10-03T17:40:37.417Z,74.40
2018-10-03T17:43:08.505Z,74.80
2018-10-03T17:45:39.050Z,74.40
2018-10-03T17:48:08.175Z,74.60
2018-10-03T17:50:39.436Z,74.70
2018-10-03T17:53:08.967Z,74.80
2018-10-03T17:55:38.893Z,75.80
2018-10-03T17:58:08.229Z,75.70
2018-10-03T18:00:37.034Z,76.80
2018-10-03T18:03:06.979Z,75.80
2018-10-03T18:05:36.159Z,76.00
2018-10-03T18:08:05.165Z,76.70
2018-10-03T18:10:41.652Z,75.60
2018-10-03T18:13:12.066Z,75.80
2018-10-03T18:15:40.952Z,76.60
2018-10-03T18:18:13.133Z,76.10
2018-10-03T18:20:42.351Z,78.90
2018-10-03T18:23:11.341Z,77.00
2018-10-03T18:25:40.569Z,76.90
2018-10-03T18:28:11.572Z,76.90
2018-10-03T18:30:41.522Z,78.10
2018-10-03T18:33:10.706Z,78.40
2018-10-03T18:35:40.859Z,79.10
2018-10-03T18:38:10.132Z,77.50
2018-10-03T18:40:39.213Z,78.30
2018-10-03T18:43:10.653Z,79.20
2018-10-03T18:45:40.190Z,78.40
2018-10-03T18:48:12.830Z,80.20
2018-10-03T18:53:26.209Z,79.20
2018-10-03T18:55:55.555Z,79.80
2018-10-03T18:58:24.338Z,78.60
2018-10-03T19:00:53.153Z,79.80
2018-10-03T19:03:22.152Z,80.40
2018-10-03T19:05:55.768Z,80.00
2018-10-03T19:08:28.632Z,79.70
2018-10-03T19:11:00.095Z,79.40
2018-10-03T19:13:30.603Z,80.10
2018-10-03T19:16:00.253Z,79.30
2018-10-03T19:18:29.068Z,80.90
2018-10-03T19:21:07.264Z,80.50
2018-10-03T19:23:37.345Z,81.30
2018-10-03T19:26:06.544Z,80.70
2018-10-03T19:28:35.744Z,81.80
2018-10-03T19:31:06.120Z,80.90
2018-10-03T19:33:35.313Z,81.20
2018-10-03T19:36:04.674Z,80.60
2018-10-03T19:38:34.160Z,81.70
2018-10-03T19:41:02.959Z,81.00
2018-10-03T19:43:33.038Z,81.40
2018-10-03T19:46:07.058Z,83.00
2018-10-03T19:48:40.596Z,83.00
2018-10-03T19:51:09.889Z,82.80
2018-10-03T19:53:38.839Z,83.20
2018-10-03T19:56:13.746Z,82.80
2018-10-03T19:58:42.948Z,82.10
2018-10-03T20:01:12.608Z,82.60
2018-10-03T20:03:48.020Z,82.90
2018-10-03T20:06:20.768Z,82.50
2018-10-03T20:08:50.497Z,82.90
2018-10-03T20:11:20.291Z,83.20
2018-10-03T20:13:51.648Z,82.50
2018-10-03T20:16:24.253Z,83.60
2018-10-03T20:18:57.804Z,83.30
2018-10-03T20:21:27.522Z,84.00
2018-10-03T20:23:56.754Z,82.80
2018-10-03T20:26:27.303Z,84.10
2018-10-03T20:28:57.873Z,83.50
2018-10-03T20:31:26.725Z,83.70
2018-10-03T20:33:55.901Z,83.80
2018-10-03T20:36:24.690Z,84.80
2018-10-03T20:38:53.674Z,84.80
2018-10-03T20:41:25.384Z,84.70
2018-10-03T20:43:56.229Z,84.50
2018-10-03T20:46:25.598Z,84.00
2018-10-03T20:48:54.755Z,85.00
2018-10-03T20:51:27.081Z,85.70
2018-10-03T20:53:56.480Z,85.40
2018-10-03T20:56:25.628Z,84.50
2018-10-03T20:58:54.894Z,84.50
2018-10-03T21:01:23.716Z,84.60
2018-10-03T21:03:52.947Z,83.90
2018-10-03T21:06:23.377Z,85.10
2018-10-03T21:08:55.485Z,84.80
2018-10-03T21:11:24.600Z,84.10
2018-10-03T21:13:53.764Z,84.20
2018-10-03T21:16:22.931Z,84.70
2018-10-03T21:18:51.830Z,86.20
2018-10-03T21:21:22.064Z,85.20
2018-10-03T21:23:51.213Z,86.40
2018-10-03T21:26:20.636Z,86.60
2018-10-03T21:28:53.404Z,87.60
2018-10-03T21:31:23.093Z,85.70
2018-10-03T21:33:53.310Z,86.60
2018-10-03T21:36:32.263Z,85.50
2018-10-03T21:39:11.544Z,85.20
2018-10-03T21:41:43.728Z,85.10
2018-10-03T21:44:15.357Z,84.80
2018-10-03T21:46:52.305Z,85.30
2018-10-03T21:49:21.530Z,85.20
2018-10-03T21:51:50.395Z,85.20
2018-10-03T21:54:19.392Z,85.20
2018-10-03T21:56:48.666Z,86.20
2018-10-03T21:59:25.016Z,88.00
2018-10-03T22:01:56.072Z,86.10
2018-10-03T22:04:25.595Z,86.20
2018-10-03T22:06:54.871Z,87.60
2018-10-03T22:09:24.085Z,87.00
2018-10-03T22:11:55.184Z,88.20
2018-10-03T22:14:24.513Z,88.00
2018-10-03T22:16:56.980Z,88.10
2018-10-03T22:19:29.188Z,88.50
2018-10-03T22:21:58.060Z,88.00
2018-10-03T22:24:30.133Z,87.20
2018-10-03T22:26:59.409Z,86.70
2018-10-03T22:29:29.352Z,88.40
2018-10-03T22:31:58.885Z,87.20
2018-10-03T22:34:28.694Z,86.60
2018-10-03T22:37:00.016Z,87.20
2018-10-03T22:39:29.452Z,87.00
2018-10-03T22:41:59.184Z,86.60
2018-10-03T22:44:34.627Z,86.30
2018-10-03T22:47:03.745Z,87.00
2018-10-03T22:49:36.537Z,86.30
2018-10-03T22:52:09.576Z,86.10
2018-10-03T22:54:44.811Z,87.00
2018-10-03T22:57:17.917Z,86.40
2018-10-03T22:59:47.936Z,87.90
2018-10-03T23:02:22.127Z,87.00
2018-10-03T23:04:53.000Z,86.80
2018-10-03T23:07:24.846Z,85.20
2018-10-03T23:09:54.189Z,86.60
2018-10-03T23:12:23.754Z,86.60
2018-10-03T23:14:53.106Z,87.30
2018-10-03T23:17:26.357Z,87.20
2018-10-03T23:19:57.740Z,85.30
2018-10-03T23:22:30.562Z,86.20
2018-10-03T23:25:02.495Z,85.60
2018-10-03T23:27:32.032Z,86.60
2018-10-03T23:30:01.300Z,86.70
2018-10-03T23:32:30.484Z,87.20
2018-10-03T23:34:59.285Z,87.40
2018-10-03T23:37:29.820Z,86.70
2018-10-03T23:40:00.092Z,87.20
2018-10-03T23:42:39.911Z,87.50
2018-10-03T23:45:10.810Z,87.90
2018-10-03T23:47:41.365Z,87.10
2018-10-03T23:50:12.769Z,87.60
2018-10-03T23:52:41.884Z,86.70
2018-10-03T23:55:11.018Z,87.50
2018-10-03T23:57:40.392Z,88.10
